Time;durP1;ratioP1;P1;durP2;ratioP2;P2;SDS_P1;SDS_P2;PMS_P1;PMS_P2;Temp;Humidity;BMP_temperature;BMP_pressure;BME280_temperature;BME280_humidity;BME280_pressure;Samples;Min_cycle;Max_cycle;Signal;HPM_P1;HPM_P2
2024/03/05 00:00:10;;;;;;;4.70;2.78;;;;;;;18.62;40.22;101124.09;5019027;28;20034;-68
2024/03/05 00:02:43;;;;;;;5.23;2.90;;;;;;;18.63;40.52;101133.69;5016347;28;20335;-68
2024/03/05 00:05:12;;;;;;;5.10;2.85;;;;;;;18.71;40.36;101140.16;5006738;28;20029;-71
2024/03/05 00:07:38;;;;;;;4.60;2.65;;;;;;;18.73;40.33;101152.28;5011019;28;20091;-69
2024/03/05 00:10:03;;;;;;;4.53;2.80;;;;;;;18.67;40.34;101140.44;5020240;28;20037;-70
2024/03/05 00:12:29;;;;;;;4.70;2.88;;;;;;;18.59;40.08;101126.97;5018873;28;20048;-70
2024/03/05 00:14:55;;;;;;;5.38;2.97;;;;;;;18.64;40.22;101139.81;5005368;28;20460;-69
2024/03/05 00:17:22;;;;;;;5.05;2.78;;;;;;;18.66;40.26;101146.66;5017359;28;20475;-70
2024/03/05 00:19:47;;;;;;;4.55;2.90;;;;;;;18.53;40.22;101119.53;5018243;28;20036;-70
2024/03/05 00:22:13;;;;;;;4.57;3.03;;;;;;;18.57;40.12;101134.19;5001975;28;20408;-68
2024/03/05 00:24:38;;;;;;;6.00;2.90;;;;;;;18.60;40.11;101135.75;5013395;28;20036;-69
2024/03/05 00:27:03;;;;;;;5.50;3.30;;;;;;;18.58;40.10;101135.00;5020913;28;20479;-68
2024/03/05 00:29:29;;;;;;;5.10;3.10;;;;;;;18.61;39.86;101138.28;5007049;28;20038;-69
2024/03/05 00:31:54;;;;;;;5.55;3.15;;;;;;;18.60;40.01;101133.94;5000595;28;20109;-69
2024/03/05 00:34:19;;;;;;;4.88;2.90;;;;;;;18.60;39.97;101138.38;5001668;28;20042;-69
2024/03/05 00:36:45;;;;;;;4.97;2.88;;;;;;;18.51;39.79;101123.28;5001080;28;20116;-70
2024/03/05 00:39:10;;;;;;;5.18;3.10;;;;;;;18.59;39.79;101139.34;5001173;28;20030;-69
2024/03/05 00:41:35;;;;;;;4.50;2.95;;;;;;;18.55;39.63;101132.59;5013480;28;20029;-69
2024/03/05 00:44:01;;;;;;;4.38;2.80;;;;;;;18.45;39.91;101122.78;5005586;28;20056;-69
2024/03/05 00:46:26;;;;;;;5.63;3.30;;;;;;;18.51;39.85;101133.81;5020783;28;20057;-69
2024/03/05 00:48:51;;;;;;;4.45;3.03;;;;;;;18.41;39.91;101118.72;5017549;28;20464;-70
2024/03/05 00:51:17;;;;;;;5.03;3.08;;;;;;;18.40;39.78;101119.66;5001129;28;20112;-69
2024/03/05 00:53:42;;;;;;;5.20;3.15;;;;;;;18.53;39.79;101147.72;5000797;28;20056;-69
2024/03/05 00:56:07;;;;;;;4.80;2.88;;;;;;;18.38;39.88;101118.94;5001143;28;20044;-70
2024/03/05 00:58:33;;;;;;;5.05;3.20;;;;;;;18.41;40.01;101126.63;5001387;28;20044;-69
2024/03/05 01:00:58;;;;;;;6.18;3.10;;;;;;;18.38;39.78;101118.13;5007544;28;20037;-68
2024/03/05 01:03:23;;;;;;;4.47;2.95;;;;;;;18.40;39.65;101119.66;5004551;28;20041;-70
2024/03/05 01:05:49;;;;;;;5.97;3.42;;;;;;;18.38;39.74;101124.22;5011320;28;20483;-70
2024/03/05 01:08:14;;;;;;;5.68;3.33;;;;;;;18.37;39.60;101113.78;5015763;28;20033;-70
2024/03/05 01:10:41;;;;;;;4.72;3.10;;;;;;;18.46;39.75;101139.47;5018731;28;20033;-69
2024/03/05 01:13:07;;;;;;;6.63;3.40;;;;;;;18.33;39.68;101112.34;5006593;28;20040;-69
2024/03/05 01:15:33;;;;;;;6.32;3.47;;;;;;;18.44;40.04;101133.47;5015958;28;20034;-70
2024/03/05 01:17:58;;;;;;;5.32;3.30;;;;;;;18.44;39.80;101139.56;5009014;28;20037;-68
2024/03/05 01:20:23;;;;;;;5.30;3.38;;;;;;;18.41;39.98;101129.25;5019364;28;20402;-69
2024/03/05 01:22:48;;;;;;;5.25;3.20;;;;;;;18.38;40.01;101124.22;5020199;28;20025;-69
2024/03/05 01:25:16;;;;;;;5.20;3.28;;;;;;;18.42;39.86;101136.22;5018753;28;20033;-69
2024/03/05 01:27:41;;;;;;;4.95;3.22;;;;;;;18.40;39.75;101119.66;4998829;28;20365;-70
2024/03/05 01:30:10;;;;;;;5.53;3.40;;;;;;;18.31;39.77;101109.84;5000592;28;20044;-69
2024/03/05 01:32:40;;;;;;;5.53;3.53;;;;;;;18.35;39.79;101116.53;5003118;28;20030;-68
2024/03/05 01:35:12;;;;;;;5.75;3.58;;;;;;;18.37;39.73;101125.16;5013568;28;20048;-70
2024/03/05 01:37:38;;;;;;;5.95;3.50;;;;;;;18.40;40.05;101118.81;5009043;28;20113;-69
2024/03/05 01:40:05;;;;;;;5.75;3.55;;;;;;;18.28;39.89;101105.63;5004256;28;20037;-69
2024/03/05 01:42:31;;;;;;;6.13;3.80;;;;;;;18.36;39.53;101122.66;5016890;28;20535;-69
2024/03/05 01:44:57;;;;;;;5.65;3.58;;;;;;;18.31;39.82;101115.13;5015311;28;20087;-69
2024/03/05 01:47:23;;;;;;;5.63;3.38;;;;;;;18.34;39.94;101119.28;5009533;28;20041;-69
2024/03/05 01:49:49;;;;;;;6.50;3.63;;;;;;;18.23;40.05;101104.28;5010778;28;20038;-69
2024/03/05 01:52:15;;;;;;;6.72;3.70;;;;;;;18.22;40.01;101105.28;5011379;28;20103;-68
2024/03/05 01:54:41;;;;;;;5.20;3.63;;;;;;;18.32;39.91;101122.06;5010218;28;20041;-68
2024/03/05 01:57:07;;;;;;;5.57;3.80;;;;;;;18.15;40.13;101096.13;5018668;28;20033;-69
2024/03/05 01:59:33;;;;;;;6.40;4.03;;;;;;;18.28;40.07;101113.53;5017302;28;20066;-68
2024/03/05 02:01:59;;;;;;;7.07;4.20;;;;;;;18.24;40.03;101111.25;5004237;28;20026;-69
2024/03/05 02:04:25;;;;;;;6.75;4.53;;;;;;;18.22;40.03;101102.63;5010254;28;20026;-69
2024/03/05 02:06:53;;;;;;;5.95;4.38;;;;;;;18.20;40.07;101093.97;5014314;28;20033;-69
2024/03/05 02:09:21;;;;;;;7.60;4.72;;;;;;;18.18;40.30;101094.09;5014136;28;20798;-71
2024/03/05 02:11:46;;;;;;;7.70;4.88;;;;;;;18.22;40.09;101100.00;5002946;28;20072;-70
2024/03/05 02:14:12;;;;;;;7.68;4.82;;;;;;;18.29;40.05;101109.97;5006417;28;20113;-68
2024/03/05 02:16:37;;;;;;;8.27;4.35;;;;;;;18.20;40.23;101093.97;5000554;28;20037;-67
2024/03/05 02:19:04;;;;;;;7.72;5.10;;;;;;;18.20;40.56;101086.94;5001960;28;20025;-68
2024/03/05 02:21:31;;;;;;;6.90;4.72;;;;;;;18.28;40.61;101099.53;5014882;28;20040;-69
2024/03/05 02:23:57;;;;;;;7.63;5.05;;;;;;;18.08;40.20;101075.50;4999355;28;20042;-68
2024/03/05 02:26:24;;;;;;;7.32;4.85;;;;;;;18.17;40.48;101078.41;5010233;28;20507;-68
2024/03/05 02:28:49;;;;;;;7.13;5.10;;;;;;;18.16;40.46;101103.09;5011597;28;20531;-68
2024/03/05 02:31:15;;;;;;;7.80;5.50;;;;;;;18.21;40.59;101108.84;5004736;28;20036;-68
2024/03/05 02:33:42;;;;;;;7.28;5.07;;;;;;;18.23;40.49;101113.06;5004796;28;20541;-69
2024/03/05 02:36:08;;;;;;;7.95;5.55;;;;;;;18.25;40.19;101118.22;5002759;28;20064;-68
2024/03/05 02:38:34;;;;;;;7.60;5.07;;;;;;;18.24;40.47;101116.53;5001184;28;20033;-68
2024/03/05 02:40:59;;;;;;;8.07;5.43;;;;;;;18.23;40.61;101110.44;5017499;28;20037;-68
2024/03/05 02:43:25;;;;;;;7.38;5.15;;;;;;;18.09;40.69;101095.66;5005288;28;20033;-68
2024/03/05 02:45:50;;;;;;;8.45;5.28;;;;;;;18.09;40.47;101095.66;5006736;28;20036;-69
2024/03/05 02:48:16;;;;;;;8.73;5.82;;;;;;;18.13;40.49;101099.75;5003753;28;20054;-69
2024/03/05 02:50:42;;;;;;;9.10;5.57;;;;;;;18.20;40.51;101115.94;4999109;28;20076;-70
2024/03/05 02:53:07;;;;;;;7.45;5.13;;;;;;;18.18;40.54;101117.84;5002296;28;20124;-68
2024/03/05 02:55:37;;;;;;;7.20;5.38;;;;;;;18.15;40.66;101109.31;5002137;28;20029;-68
2024/03/05 02:58:03;;;;;;;8.02;5.72;;;;;;;18.21;40.44;101111.50;5014514;28;20042;-69
2024/03/05 03:00:28;;;;;;;9.93;5.57;;;;;;;18.05;40.53;101090.75;5011795;28;20049;-68
2024/03/05 03:02:54;;;;;;;9.00;5.68;;;;;;;18.00;40.47;101082.34;5005447;28;20788;-69
2024/03/05 03:05:23;;;;;;;8.23;5.78;;;;;;;18.14;40.76;101100.59;5010724;28;20568;-68
2024/03/05 03:07:48;;;;;;;7.95;5.60;;;;;;;18.07;40.70;101091.44;5006132;28;20487;-68
2024/03/05 03:10:13;;;;;;;8.25;5.97;;;;;;;18.04;40.57;101087.28;5013250;28;20034;-68
2024/03/05 03:12:39;;;;;;;7.30;5.20;;;;;;;18.10;40.69;101100.00;5005147;28;20536;-68
2024/03/05 03:15:08;;;;;;;8.23;5.78;;;;;;;18.07;40.59;101102.88;5002108;28;20029;-69
2024/03/05 03:17:35;;;;;;;9.30;5.80;;;;;;;18.05;40.81;101101.28;5005295;28;20034;-69
2024/03/05 03:20:01;;;;;;;8.20;5.82;;;;;;;17.96;40.82;101081.75;5002772;28;20038;-68
2024/03/05 03:22:27;;;;;;;7.85;5.00;;;;;;;18.17;41.07;101123.25;5008855;28;20514;-68
2024/03/05 03:24:52;;;;;;;8.20;5.45;;;;;;;18.17;40.95;101118.00;5007198;28;20037;-69
2024/03/05 03:27:19;;;;;;;7.75;5.43;;;;;;;18.17;40.86;101116.19;5009903;28;20048;-69
2024/03/05 03:29:45;;;;;;;7.53;5.68;;;;;;;18.12;40.83;101113.88;5014698;28;20034;-70
2024/03/05 03:32:10;;;;;;;8.68;6.20;;;;;;;18.15;40.73;101115.47;5013830;28;20041;-69
2024/03/05 03:34:40;;;;;;;6.57;4.88;;;;;;;18.13;40.90;101110.31;5012778;28;20411;-68
2024/03/05 03:37:05;;;;;;;9.20;5.72;;;;;;;18.07;41.10;101105.50;5011863;28;20025;-69
2024/03/05 03:39:30;;;;;;;7.75;5.60;;;;;;;18.11;40.97;101106.94;5010077;28;20721;-68
2024/03/05 03:41:56;;;;;;;7.60;5.20;;;;;;;18.13;40.84;101120.84;5011865;28;20034;-69
2024/03/05 03:44:22;;;;;;;8.32;5.32;;;;;;;18.09;40.77;101105.38;5011696;28;20120;-68
2024/03/05 03:46:48;;;;;;;8.55;5.53;;;;;;;18.12;41.06;101118.34;5012644;28;20120;-69
2024/03/05 03:49:14;;;;;;;8.18;5.80;;;;;;;18.12;40.91;101113.88;5008642;28;20076;-68
2024/03/05 03:51:39;;;;;;;8.80;5.97;;;;;;;18.13;41.35;101118.22;5011821;28;20056;-69
2024/03/05 03:54:04;;;;;;;7.57;5.68;;;;;;;17.99;40.77;101099.97;5010295;28;20476;-68
2024/03/05 03:56:30;;;;;;;8.18;5.75;;;;;;;18.09;40.69;101115.94;5002287;28;20077;-69
2024/03/05 03:58:56;;;;;;;10.48;5.95;;;;;;;18.03;40.99;101108.50;5011488;28;20088;-69
2024/03/05 04:01:22;;;;;;;8.00;5.20;;;;;;;18.12;41.15;101121.81;5004973;28;20459;-69
2024/03/05 04:03:48;;;;;;;7.47;5.72;;;;;;;18.12;40.97;101124.44;5002070;28;20041;-69
2024/03/05 04:06:14;;;;;;;9.48;6.22;;;;;;;17.98;41.12;101100.09;5007434;28;20052;-68
2024/03/05 04:08:40;;;;;;;8.13;6.00;;;;;;;17.90;41.06;101092.75;5015784;28;20052;-69
2024/03/05 04:11:06;;;;;;;8.15;5.88;;;;;;;18.11;41.16;101132.47;5018862;28;20522;-69
2024/03/05 04:13:31;;;;;;;9.23;6.28;;;;;;;17.98;41.09;101108.84;5001767;28;20065;-69
2024/03/05 04:15:57;;;;;;;9.13;5.78;;;;;;;18.03;41.20;101119.88;5001571;28;20084;-68
2024/03/05 04:18:22;;;;;;;8.93;5.93;;;;;;;18.08;40.97;101127.44;5001902;28;20105;-68
2024/03/05 04:20:48;;;;;;;8.30;5.63;;;;;;;18.06;41.14;101127.53;5017489;28;20777;-69
2024/03/05 04:23:13;;;;;;;8.00;5.25;;;;;;;17.89;41.00;101097.19;5011603;28;20473;-68
2024/03/05 04:25:41;;;;;;;7.85;5.60;;;;;;;17.95;41.42;101109.06;5021393;28;20063;-69
2024/03/05 04:28:12;;;;;;;8.52;6.03;;;;;;;18.05;41.33;101130.31;5013708;28;20118;-68
2024/03/05 04:30:48;;;;;;;9.05;5.75;;;;;;;18.05;41.41;101127.66;5005328;28;20030;-68
2024/03/05 04:33:19;;;;;;;8.75;5.97;;;;;;;17.93;41.18;101113.63;5016254;28;20053;-69
2024/03/05 04:35:45;;;;;;;8.82;5.97;;;;;;;18.05;41.49;101136.41;5002481;28;20076;-68
2024/03/05 04:38:10;;;;;;;8.05;5.57;;;;;;;17.98;41.06;101121.19;5016142;28;20339;-68
2024/03/05 04:40:37;;;;;;;7.30;5.68;;;;;;;17.98;41.16;101119.38;5011427;28;20125;-68
2024/03/05 04:43:05;;;;;;;7.95;5.30;;;;;;;18.05;41.37;101136.41;5012125;28;20045;-70
2024/03/05 04:45:32;;;;;;;7.07;5.13;;;;;;;18.03;41.43;101132.22;5009660;28;20033;-69
2024/03/05 04:47:58;;;;;;;7.68;5.35;;;;;;;17.94;41.42;101123.19;5009576;28;20049;-69
2024/03/05 04:50:23;;;;;;;8.13;5.63;;;;;;;17.98;41.44;101142.28;5009376;28;20176;-68
2024/03/05 04:52:48;;;;;;;7.78;5.80;;;;;;;17.92;41.41;101131.22;5014196;28;20033;-68
2024/03/05 04:55:14;;;;;;;7.10;5.03;;;;;;;18.03;41.30;101158.59;5005699;28;20037;-68
2024/03/05 04:57:40;;;;;;;7.50;5.75;;;;;;;18.01;41.51;101156.06;5013217;28;20096;-69
2024/03/05 05:00:23;;;;;;;7.50;5.90;;;;;;;17.96;41.48;101145.03;5009552;28;20121;-69
2024/03/05 05:02:50;;;;;;;8.30;5.20;;;;;;;17.96;41.30;101137.13;5008839;28;20026;-68
2024/03/05 05:05:17;;;;;;;7.93;5.63;;;;;;;17.89;41.44;101134.09;5017512;28;20045;-68
2024/03/05 05:07:43;;;;;;;6.95;5.10;;;;;;;18.01;41.31;101148.16;5012658;28;20045;-68
2024/03/05 05:10:09;;;;;;;8.18;5.70;;;;;;;18.01;41.53;101153.44;5014374;28;20061;-69
2024/03/05 05:12:35;;;;;;;7.70;5.85;;;;;;;17.85;41.61;101127.34;5011734;28;20112;-68
2024/03/05 05:15:00;;;;;;;8.27;5.68;;;;;;;17.79;41.55;101119.91;5019969;28;20112;-69
2024/03/05 05:17:26;;;;;;;8.30;5.85;;;;;;;17.89;41.87;101135.91;5007686;28;20102;-68
2024/03/05 05:19:51;;;;;;;7.68;5.25;;;;;;;18.00;41.66;101150.91;4999935;28;20037;-69
2024/03/05 05:22:17;;;;;;;7.43;5.38;;;;;;;17.92;41.40;101139.13;5014981;28;20056;-68
2024/03/05 05:24:42;;;;;;;8.13;5.60;;;;;;;17.98;41.75;101151.03;5012848;28;20037;-68
2024/03/05 05:27:09;;;;;;;7.68;5.47;;;;;;;17.90;41.52;101138.41;5003624;28;20041;-68
2024/03/05 05:29:36;;;;;;;7.22;5.30;;;;;;;17.87;41.71;101129.88;4999054;28;20140;-68
2024/03/05 05:32:01;;;;;;;7.63;5.03;;;;;;;17.86;41.45;101126.38;5014458;28;20479;-68
2024/03/05 05:34:27;;;;;;;6.68;5.03;;;;;;;17.84;41.63;101124.84;5019444;28;20037;-70
2024/03/05 05:36:52;;;;;;;6.55;4.78;;;;;;;17.91;41.68;101142.75;5001414;28;20116;-69
2024/03/05 05:39:21;;;;;;;6.80;5.05;;;;;;;17.94;41.63;101146.94;5017994;28;20060;-69
2024/03/05 05:41:47;;;;;;;7.20;5.13;;;;;;;17.92;41.70;101139.13;5019159;28;20029;-70
2024/03/05 05:44:12;;;;;;;6.82;5.28;;;;;;;17.86;41.54;101134.28;5010669;28;20045;-68
2024/03/05 05:46:37;;;;;;;6.70;4.68;;;;;;;17.95;41.62;101154.72;5013905;28;20033;-69
2024/03/05 05:49:05;;;;;;;7.20;4.53;;;;;;;17.83;41.36;101128.41;5018594;28;20113;-69
2024/03/05 05:51:31;;;;;;;6.93;4.65;;;;;;;17.82;41.77;101134.66;5002567;28;20030;-69
2024/03/05 05:53:57;;;;;;;6.78;4.57;;;;;;;17.81;41.42;101120.63;5002709;28;20047;-69
2024/03/05 05:56:22;;;;;;;7.40;4.80;;;;;;;17.90;41.91;101145.50;5017361;28;20037;-70
2024/03/05 05:58:48;;;;;;;5.85;3.97;;;;;;;17.85;41.58;101140.53;5004254;28;20026;-69
2024/03/05 06:01:13;;;;;;;5.45;4.13;;;;;;;17.91;41.42;101148.03;5014868;28;20029;-69
2024/03/05 06:03:41;;;;;;;6.90;4.38;;;;;;;17.89;41.55;101149.09;5013033;28;20500;-70
2024/03/05 06:06:07;;;;;;;7.20;4.95;;;;;;;17.91;41.67;101155.94;5017329;28;20045;-70
2024/03/05 06:08:34;;;;;;;5.85;3.70;;;;;;;17.92;41.86;101160.22;5008746;28;20034;-69
2024/03/05 06:11:00;;;;;;;5.78;4.03;;;;;;;17.80;41.63;101145.31;5016567;28;20033;-69
2024/03/05 06:13:25;;;;;;;6.32;3.72;;;;;;;17.82;41.74;101146.03;5010197;28;20407;-71
2024/03/05 06:15:51;;;;;;;6.50;3.60;;;;;;;17.86;41.76;101146.66;5017012;28;20052;-69
2024/03/05 06:18:16;;;;;;;5.25;3.50;;;;;;;18.00;41.63;101172.00;5007161;28;20913;-70
2024/03/05 06:20:43;;;;;;;5.32;3.33;;;;;;;17.90;41.84;101154.25;5011865;28;20033;-69
2024/03/05 06:23:11;;;;;;;4.40;2.60;;;;;;;17.90;41.75;101138.41;5024844;28;20131;-69
2024/03/05 06:25:37;;;;;;;5.25;3.08;;;;;;;17.99;42.05;101165.91;5000767;28;20041;-69
2024/03/05 06:28:02;;;;;;;4.68;2.63;;;;;;;17.94;42.12;101149.56;5002952;28;20420;-68
2024/03/05 06:30:28;;;;;;;5.10;2.80;;;;;;;18.10;42.26;101179.13;5003817;28;20104;-70
2024/03/05 06:32:53;;;;;;;5.82;2.58;;;;;;;17.91;42.12;101140.13;5003657;28;20168;-69
2024/03/05 06:35:22;;;;;;;4.15;2.30;;;;;;;18.05;42.17;101164.59;5009179;28;20029;-69
2024/03/05 06:37:48;;;;;;;4.80;2.70;;;;;;;18.18;42.01;101181.16;5003592;28;20100;-69
2024/03/05 06:40:19;;;;;;;4.93;2.55;;;;;;;18.10;41.87;101159.78;5006695;28;20079;-69
2024/03/05 06:42:51;;;;;;;4.10;2.40;;;;;;;18.22;42.06;101173.88;5012639;28;20044;-69
2024/03/05 06:45:27;;;;;;;4.43;2.30;;;;;;;18.12;42.16;101164.00;5010289;28;20065;-71
2024/03/05 06:48:07;;;;;;;4.53;2.35;;;;;;;18.15;42.05;101157.66;5004760;28;20398;-70
2024/03/05 06:50:41;;;;;;;4.07;2.30;;;;;;;18.20;42.00;101159.94;5012425;28;20059;-70
2024/03/05 06:58:38;;;;;;;;;;;;;;;18.34;41.92;101186.13;5001841;28;20045;-70
2024/03/05 07:01:09;;;;;;;4.07;2.20;;;;;;;18.26;41.66;101173.50;5002220;28;20863;-70
2024/03/05 07:03:35;;;;;;;5.10;2.60;;;;;;;18.24;42.17;101170.13;5003948;28;20291;-70
2024/03/05 07:06:06;;;;;;;4.68;2.65;;;;;;;18.36;41.82;101192.13;5009873;28;20108;-69
2024/03/05 07:08:38;;;;;;;4.50;2.40;;;;;;;18.23;41.92;101172.88;5003123;28;20034;-70
2024/03/05 07:11:05;;;;;;;5.60;2.40;;;;;;;18.36;42.10;101193.88;5001508;28;20454;-70
2024/03/05 07:13:37;;;;;;;4.07;2.25;;;;;;;18.39;41.82;101201.56;5001623;28;20021;-71
2024/03/05 07:16:13;;;;;;;4.18;2.25;;;;;;;18.40;42.12;101200.63;5034070;28;20037;-70
2024/03/05 07:18:39;;;;;;;5.03;2.38;;;;;;;18.24;42.13;101175.41;5008235;28;20056;-70
2024/03/05 07:21:07;;;;;;;4.65;2.20;;;;;;;18.28;41.96;101183.94;5007740;28;20034;-69
2024/03/05 07:23:32;;;;;;;4.90;2.42;;;;;;;18.33;42.32;101194.16;5015863;28;20041;-70
2024/03/05 07:25:58;;;;;;;3.95;2.20;;;;;;;18.39;41.80;101198.94;5017788;28;20103;-70
2024/03/05 07:28:25;;;;;;;4.57;2.40;;;;;;;18.20;42.10;101173.13;5014800;28;20480;-70
2024/03/05 07:30:51;;;;;;;3.83;2.13;;;;;;;18.32;42.11;101193.28;5015602;28;20026;-70
2024/03/05 07:33:17;;;;;;;4.32;2.25;;;;;;;18.38;41.95;101202.56;5012404;28;20149;-70
2024/03/05 07:35:42;;;;;;;3.67;2.03;;;;;;;18.29;41.95;101190.88;5016691;28;20034;-70
2024/03/05 07:38:07;;;;;;;5.25;2.45;;;;;;;18.27;41.82;101183.09;5017100;28;20037;-71
2024/03/05 07:40:36;;;;;;;4.13;2.03;;;;;;;18.38;41.88;101202.56;5017148;28;20021;-70
2024/03/05 07:43:04;;;;;;;4.90;2.25;;;;;;;18.37;42.05;101201.69;5021899;28;20064;-70
2024/03/05 07:45:33;;;;;;;3.90;2.00;;;;;;;18.29;41.81;101189.13;5022200;28;20033;-71
2024/03/05 07:47:58;;;;;;;4.35;2.22;;;;;;;18.24;41.89;101179.84;5020748;28;20395;-70
2024/03/05 07:50:24;;;;;;;4.72;2.03;;;;;;;18.26;41.92;101181.44;5010859;28;20033;-70
2024/03/05 07:52:53;;;;;;;4.40;2.38;;;;;;;18.37;41.80;101198.22;5013036;28;20033;-72
2024/03/05 07:55:21;;;;;;;3.67;2.05;;;;;;;18.41;42.14;101204.97;5005232;28;20029;-70
2024/03/05 07:57:49;;;;;;;4.53;2.63;;;;;;;18.26;42.11;101191.13;5010191;28;20034;-71
2024/03/05 08:00:17;;;;;;;4.53;2.45;;;;;;;18.28;42.09;101197.97;5014997;28;20124;-70
2024/03/05 08:02:45;;;;;;;4.43;2.60;;;;;;;18.31;42.28;101195.09;5011397;28;20037;-71
2024/03/05 08:05:11;;;;;;;4.68;2.72;;;;;;;18.41;42.48;101213.69;5010950;28;20038;-71
2024/03/05 08:07:37;;;;;;;4.32;2.45;;;;;;;18.32;42.66;101198.56;5014113;28;20550;-71
2024/03/05 08:10:07;;;;;;;4.20;2.20;;;;;;;18.41;42.68;101223.44;5012548;28;20037;-70
2024/03/05 08:12:43;;;;;;;5.35;2.60;;;;;;;18.42;42.68;101227.72;5010510;28;20065;-70
2024/03/05 08:15:13;;;;;;;5.43;2.60;;;;;;;18.27;42.93;101206.84;5008420;28;20379;-70
2024/03/05 08:17:40;;;;;;;4.03;2.40;;;;;;;18.33;42.77;101210.00;5009407;28;20084;-71
2024/03/05 08:20:09;;;;;;;3.88;2.20;;;;;;;18.37;42.87;101219.34;5013537;28;20052;-72
2024/03/05 08:22:34;;;;;;;3.88;2.22;;;;;;;18.33;42.73;101205.53;5007510;28;20037;-71
2024/03/05 08:25:09;;;;;;;4.43;2.20;;;;;;;18.29;43.30;101210.22;5011795;28;20087;-68
2024/03/05 08:27:34;;;;;;;4.95;2.60;;;;;;;18.38;42.94;101227.13;5012018;28;20039;-68
2024/03/05 08:30:00;;;;;;;4.82;2.67;;;;;;;18.40;42.99;101221.75;5018553;28;20029;-70
2024/03/05 08:32:25;;;;;;;4.40;2.53;;;;;;;18.29;43.02;101210.22;5013060;28;20042;-69
2024/03/05 08:34:51;;;;;;;4.53;2.38;;;;;;;18.27;42.86;101213.91;5006797;28;20030;-69
2024/03/05 08:37:17;;;;;;;4.40;2.33;;;;;;;18.37;43.11;101233.34;5007024;28;20131;-69
2024/03/05 08:39:42;;;;;;;4.28;2.47;;;;;;;18.38;43.03;101237.69;5001707;28;20117;-70
2024/03/05 08:42:07;;;;;;;4.20;2.30;;;;;;;18.40;43.13;101250.75;5017759;28;20026;-72
2024/03/05 08:44:33;;;;;;;5.50;2.20;;;;;;;18.45;43.26;101256.53;5003858;28;20030;-68
2024/03/05 08:46:58;;;;;;;3.67;1.98;;;;;;;18.46;43.44;101248.50;5021511;28;20049;-70
2024/03/05 08:49:25;;;;;;;4.57;2.25;;;;;;;18.52;43.43;101244.56;5017569;28;20154;-69
2024/03/05 08:51:57;;;;;;;3.33;1.75;;;;;;;18.56;43.48;101247.78;5010198;28;20036;-74
2024/03/05 08:54:23;;;;;;;7.95;2.05;;;;;;;18.65;43.54;101252.38;5006129;28;20040;-70
2024/03/05 08:56:48;;;;;;;3.13;1.70;;;;;;;18.58;43.44;101235.31;5014740;28;20029;-74
2024/03/05 08:59:14;;;;;;;6.22;2.00;;;;;;;18.61;43.43;101238.56;5012358;28;20045;-70
2024/03/05 09:01:40;;;;;;;5.50;2.03;;;;;;;18.69;43.13;101267.00;5008300;28;20547;-71
2024/03/05 09:04:09;;;;;;;3.92;1.70;;;;;;;18.63;43.18;101251.66;5005944;28;20088;-71
2024/03/05 09:06:35;;;;;;;4.68;1.90;;;;;;;18.63;43.01;101265.69;5017245;28;20040;-70
2024/03/05 09:09:00;;;;;;;4.93;2.05;;;;;;;18.55;42.89;101251.38;5014760;28;20037;-69
2024/03/05 09:11:26;;;;;;;3.88;1.98;;;;;;;18.62;42.87;101268.44;5004319;28;20033;-71
2024/03/05 09:13:51;;;;;;;4.10;1.95;;;;;;;18.57;43.04;101265.31;5001773;28;20476;-72
2024/03/05 09:16:17;;;;;;;4.90;1.98;;;;;;;18.53;43.02;101262.06;5018959;28;20028;-71
2024/03/05 09:18:42;;;;;;;5.47;2.33;;;;;;;18.46;43.26;101248.50;5012890;28;20484;-69
2024/03/05 09:21:09;;;;;;;5.30;2.20;;;;;;;18.47;43.40;101254.63;5000361;28;20495;-71
2024/03/05 09:23:34;;;;;;;6.03;2.38;;;;;;;18.47;43.38;101255.47;5006779;28;20052;-74
2024/03/05 09:26:03;;;;;;;5.47;2.40;;;;;;;18.57;43.36;101275.88;5011707;28;20501;-77
2024/03/05 09:28:28;;;;;;;6.45;2.40;;;;;;;18.58;43.18;101272.25;5010471;28;20091;-72
2024/03/05 09:30:56;;;;;;;4.70;2.50;;;;;;;18.46;43.51;101259.06;5011183;28;20037;-74
2024/03/05 09:33:21;;;;;;;4.28;2.17;;;;;;;18.54;43.40;101271.66;5003578;28;20118;-76
2024/03/05 09:35:49;;;;;;;6.05;2.50;;;;;;;18.45;43.51;101252.13;5004713;28;20125;-73
2024/03/05 09:38:16;;;;;;;5.82;2.40;;;;;;;18.48;43.29;101267.72;5014343;28;20039;-73
2024/03/05 09:40:42;;;;;;;4.93;2.42;;;;;;;18.56;43.31;101274.19;5008824;28;20029;-76
2024/03/05 09:43:07;;;;;;;4.80;2.20;;;;;;;18.58;43.07;101278.41;5010711;28;20060;-79
2024/03/05 09:45:36;;;;;;;5.95;2.58;;;;;;;18.55;43.16;101275.13;5010718;28;20037;-76
2024/03/05 09:48:02;;;;;;;5.28;2.67;;;;;;;18.52;43.79;101265.69;5009239;28;20053;-80
2024/03/05 09:50:31;;;;;;;6.72;2.60;;;;;;;18.56;43.25;101274.19;5010353;28;20048;-80
2024/03/05 09:52:59;;;;;;;6.50;2.70;;;;;;;18.58;43.16;101281.03;5009760;28;20107;-73
2024/03/05 09:55:24;;;;;;;5.45;2.53;;;;;;;18.63;43.80;101288.63;5012863;28;20037;-78
2024/03/05 09:57:53;;;;;;;3.72;2.30;;;;;;;18.61;43.37;101287.88;5011078;28;20041;-78
2024/03/05 10:00:20;;;;;;;5.40;2.60;;;;;;;18.63;43.29;101291.25;5013388;28;20506;-76
2024/03/05 10:02:50;;;;;;;6.05;2.50;;;;;;;18.62;43.36;101292.22;5010365;28;20037;-77
2024/03/05 10:05:16;;;;;;;4.65;2.13;;;;;;;18.46;43.26;101276.69;5013231;28;20124;-73
2024/03/05 10:07:42;;;;;;;4.40;2.30;;;;;;;18.58;43.42;101294.25;5015286;28;20033;-75
2024/03/05 10:10:12;;;;;;;4.78;2.20;;;;;;;18.54;43.22;101291.94;4999481;28;20029;-73
2024/03/05 10:12:40;;;;;;;5.68;2.45;;;;;;;18.55;43.21;101297.13;5003523;28;20033;-77
2024/03/05 10:15:22;;;;;;;4.82;2.63;;;;;;;18.49;43.08;101284.38;5005490;28;20018;-77
2024/03/05 10:17:49;;;;;;;5.40;2.28;;;;;;;18.61;42.98;101304.56;5013330;28;20033;-72
2024/03/05 10:20:34;;;;;;;4.78;2.20;;;;;;;18.63;43.07;101312.38;5010547;28;20048;-75
2024/03/05 10:23:10;;;;;;;5.45;2.30;;;;;;;18.58;43.24;101304.81;5003793;28;20058;-75
2024/03/05 10:25:36;;;;;;;4.97;2.45;;;;;;;18.61;43.06;101301.94;5013321;28;20035;-77
2024/03/05 10:28:08;;;;;;;4.28;2.17;;;;;;;18.59;43.23;101306.47;5005755;28;20402;-76
2024/03/05 10:30:36;;;;;;;4.85;2.22;;;;;;;18.49;43.36;101293.13;5010320;28;20095;-74
2024/03/05 10:33:09;;;;;;;4.30;2.22;;;;;;;18.61;42.96;101312.50;5004021;28;20464;-77
2024/03/05 10:35:36;;;;;;;4.87;2.20;;;;;;;18.62;43.12;101306.22;5007858;28;20044;-76
2024/03/05 10:38:03;;;;;;;5.00;2.35;;;;;;;18.62;43.35;101313.31;5005802;28;20387;-75
2024/03/05 10:40:32;;;;;;;4.10;2.13;;;;;;;18.63;43.10;101315.00;5015843;28;20029;-72
2024/03/05 10:43:00;;;;;;;4.82;2.10;;;;;;;18.51;43.05;101302.75;5001084;28;20069;-71
2024/03/05 10:45:29;;;;;;;4.18;1.92;;;;;;;18.60;43.02;101321.34;5010378;28;20033;-70
2024/03/05 10:47:58;;;;;;;5.13;2.50;;;;;;;18.50;42.88;101301.91;5000754;28;20050;-70
2024/03/05 10:50:28;;;;;;;5.78;2.40;;;;;;;18.57;43.15;101316.31;5003129;28;20029;-79
2024/03/05 10:52:55;;;;;;;7.60;2.20;;;;;;;18.58;42.73;101315.38;5014952;28;20533;-72
2024/03/05 10:55:22;;;;;;;4.72;2.25;;;;;;;18.45;42.96;101304.91;5011048;28;20088;-75
2024/03/05 11:00:36;;;;;;;5.63;2.13;;;;;;;18.61;43.08;101330.09;5011984;28;20510;-71
2024/03/05 11:03:06;;;;;;;6.43;2.30;;;;;;;18.44;43.01;101300.56;5010929;28;20041;-76
2024/03/05 11:05:39;;;;;;;4.32;1.85;;;;;;;18.57;43.13;101324.22;5008403;28;20209;-77
2024/03/05 11:08:12;;;;;;;4.93;2.03;;;;;;;18.60;42.87;101334.56;5009049;28;20025;-77
2024/03/05 11:10:40;;;;;;;6.72;2.20;;;;;;;18.54;42.91;101323.63;5007914;28;20041;-77
2024/03/05 11:13:05;;;;;;;5.05;1.92;;;;;;;18.53;43.04;101321.94;5007382;28;20483;-76
2024/03/05 11:15:32;;;;;;;3.88;2.00;;;;;;;18.41;43.01;101300.78;5008241;28;20025;-76
2024/03/05 11:17:58;;;;;;;4.55;1.92;;;;;;;18.52;42.89;101321.09;5007076;28;20029;-79
2024/03/05 11:20:40;;;;;;;3.95;1.90;;;;;;;18.51;42.64;101315.94;5009033;28;20038;-71
2024/03/05 11:23:07;;;;;;;4.72;1.80;;;;;;;18.57;43.05;101324.22;5007601;28;20042;-78
2024/03/05 11:25:33;;;;;;;4.53;1.70;;;;;;;18.55;42.94;101322.66;5010136;28;20033;-76
2024/03/05 11:27:58;;;;;;;4.30;1.83;;;;;;;18.53;43.01;101325.41;5009086;28;20049;-77
2024/03/05 11:30:28;;;;;;;3.97;1.67;;;;;;;18.62;42.84;101326.53;5011449;28;20037;-73